Center Sandwich, New Hampshire
Current Conditions -  °F | °C
As of 3:55 PM on Tuesday 25 Nov 2014 (Local Time) from K1P1 Reporting Station
Clear Clear  
Wind Chill: 49°   Ceiling: Unl
Heat Index: 49°   Visibility: 10mi
Dew Point: 31°   Wind: 3mph
Humidity: 49%   Direction: 290°WNW
Pressure: 29.89"   Gusts: NA
Location:  43.81°N, 71.44°W
Report Text: K1P1 252055Z AUTO 29003KT 10SM CLR 10/M01 A2989 RMK AO2 T00961008
Loading
Personal Weather Stations






























Interactive Weather Map New forecast layout! Learn more

10-Day Weather Forecast

Advertisements
Track Severe Weather on mobile